sensor_id;sensor_type;location;lat;lon;timestamp;P1;durP1;ratioP1;P2;durP2;ratioP2
31798;SDS011;18374;51.136;3.502;2023-05-07T00:01:04;13.07;;;7.40;;
31798;SDS011;18374;51.136;3.502;2023-05-07T00:03:33;13.52;;;7.40;;
31798;SDS011;18374;51.136;3.502;2023-05-07T00:06:01;12.25;;;7.00;;
31798;SDS011;18374;51.136;3.502;2023-05-07T00:08:29;13.57;;;7.25;;
31798;SDS011;18374;51.136;3.502;2023-05-07T00:10:57;13.20;;;6.78;;
31798;SDS011;18374;51.136;3.502;2023-05-07T00:13:24;14.27;;;6.72;;
31798;SDS011;18374;51.136;3.502;2023-05-07T00:15:52;17.85;;;6.97;;
31798;SDS011;18374;51.136;3.502;2023-05-07T00:18:20;12.43;;;6.53;;
31798;SDS011;18374;51.136;3.502;2023-05-07T00:20:49;11.63;;;6.55;;
31798;SDS011;18374;51.136;3.502;2023-05-07T00:23:17;14.63;;;6.72;;
31798;SDS011;18374;51.136;3.502;2023-05-07T00:25:44;18.98;;;7.57;;
31798;SDS011;18374;51.136;3.502;2023-05-07T00:28:12;12.50;;;6.03;;
31798;SDS011;18374;51.136;3.502;2023-05-07T00:30:40;14.15;;;6.00;;
31798;SDS011;18374;51.136;3.502;2023-05-07T00:33:08;17.50;;;6.68;;
31798;SDS011;18374;51.136;3.502;2023-05-07T00:35:36;11.98;;;6.20;;
31798;SDS011;18374;51.136;3.502;2023-05-07T00:38:03;11.77;;;6.15;;
31798;SDS011;18374;51.136;3.502;2023-05-07T00:40:31;13.70;;;5.20;;
31798;SDS011;18374;51.136;3.502;2023-05-07T00:42:59;13.55;;;5.95;;
31798;SDS011;18374;51.136;3.502;2023-05-07T00:45:27;14.35;;;6.07;;
31798;SDS011;18374;51.136;3.502;2023-05-07T00:47:56;11.57;;;5.68;;
31798;SDS011;18374;51.136;3.502;2023-05-07T00:50:28;14.65;;;5.90;;
31798;SDS011;18374;51.136;3.502;2023-05-07T00:52:56;12.18;;;5.43;;
31798;SDS011;18374;51.136;3.502;2023-05-07T00:55:25;14.18;;;6.20;;
31798;SDS011;18374;51.136;3.502;2023-05-07T00:57:53;14.80;;;6.47;;
31798;SDS011;18374;51.136;3.502;2023-05-07T01:00:21;13.48;;;6.18;;
31798;SDS011;18374;51.136;3.502;2023-05-07T01:02:49;9.00;;;5.32;;
31798;SDS011;18374;51.136;3.502;2023-05-07T01:05:18;11.55;;;6.13;;
31798;SDS011;18374;51.136;3.502;2023-05-07T01:07:48;13.68;;;6.10;;
31798;SDS011;18374;51.136;3.502;2023-05-07T01:10:17;12.30;;;5.95;;
31798;SDS011;18374;51.136;3.502;2023-05-07T01:12:45;11.60;;;6.30;;
31798;SDS011;18374;51.136;3.502;2023-05-07T01:15:15;15.63;;;7.13;;
31798;SDS011;18374;51.136;3.502;2023-05-07T01:17:43;9.23;;;5.80;;
31798;SDS011;18374;51.136;3.502;2023-05-07T01:20:18;10.68;;;5.50;;
31798;SDS011;18374;51.136;3.502;2023-05-07T01:22:48;13.10;;;6.25;;
31798;SDS011;18374;51.136;3.502;2023-05-07T01:25:17;14.75;;;5.85;;
31798;SDS011;18374;51.136;3.502;2023-05-07T01:27:49;10.80;;;5.63;;
31798;SDS011;18374;51.136;3.502;2023-05-07T01:30:19;10.63;;;5.60;;
31798;SDS011;18374;51.136;3.502;2023-05-07T01:32:53;12.07;;;5.95;;
31798;SDS011;18374;51.136;3.502;2023-05-07T01:35:40;13.95;;;6.00;;
31798;SDS011;18374;51.136;3.502;2023-05-07T01:38:12;11.20;;;6.63;;
31798;SDS011;18374;51.136;3.502;2023-05-07T01:40:40;13.00;;;6.10;;
31798;SDS011;18374;51.136;3.502;2023-05-07T01:43:09;19.80;;;6.13;;
31798;SDS011;18374;51.136;3.502;2023-05-07T01:45:37;10.45;;;5.13;;
31798;SDS011;18374;51.136;3.502;2023-05-07T01:48:05;8.85;;;5.18;;
31798;SDS011;18374;51.136;3.502;2023-05-07T01:50:34;12.10;;;5.72;;
31798;SDS011;18374;51.136;3.502;2023-05-07T01:53:03;9.45;;;5.60;;
31798;SDS011;18374;51.136;3.502;2023-05-07T01:55:31;14.68;;;6.03;;
31798;SDS011;18374;51.136;3.502;2023-05-07T01:57:59;14.43;;;5.90;;
31798;SDS011;18374;51.136;3.502;2023-05-07T02:00:27;8.88;;;5.85;;
31798;SDS011;18374;51.136;3.502;2023-05-07T02:02:55;13.35;;;6.20;;
31798;SDS011;18374;51.136;3.502;2023-05-07T02:05:33;14.32;;;6.50;;
31798;SDS011;18374;51.136;3.502;2023-05-07T02:08:07;14.15;;;5.85;;
31798;SDS011;18374;51.136;3.502;2023-05-07T02:10:35;10.00;;;6.40;;
31798;SDS011;18374;51.136;3.502;2023-05-07T02:13:05;10.57;;;5.90;;
31798;SDS011;18374;51.136;3.502;2023-05-07T02:15:33;13.43;;;7.13;;
31798;SDS011;18374;51.136;3.502;2023-05-07T02:18:03;11.48;;;6.30;;
31798;SDS011;18374;51.136;3.502;2023-05-07T02:20:35;11.45;;;6.60;;
31798;SDS011;18374;51.136;3.502;2023-05-07T02:23:03;16.55;;;6.40;;
31798;SDS011;18374;51.136;3.502;2023-05-07T02:25:31;14.35;;;6.22;;
31798;SDS011;18374;51.136;3.502;2023-05-07T02:27:58;16.42;;;7.28;;
31798;SDS011;18374;51.136;3.502;2023-05-07T02:30:39;12.82;;;6.72;;
31798;SDS011;18374;51.136;3.502;2023-05-07T02:33:08;12.18;;;6.63;;
31798;SDS011;18374;51.136;3.502;2023-05-07T02:35:36;13.98;;;7.35;;
31798;SDS011;18374;51.136;3.502;2023-05-07T02:38:04;12.80;;;7.10;;
31798;SDS011;18374;51.136;3.502;2023-05-07T02:40:33;15.10;;;7.72;;
31798;SDS011;18374;51.136;3.502;2023-05-07T02:43:05;11.85;;;6.80;;
31798;SDS011;18374;51.136;3.502;2023-05-07T02:45:33;12.23;;;7.03;;
31798;SDS011;18374;51.136;3.502;2023-05-07T02:48:03;15.40;;;6.85;;
31798;SDS011;18374;51.136;3.502;2023-05-07T02:50:32;14.70;;;7.40;;
31798;SDS011;18374;51.136;3.502;2023-05-07T02:53:01;12.52;;;6.28;;
31798;SDS011;18374;51.136;3.502;2023-05-07T02:55:28;11.32;;;6.72;;
31798;SDS011;18374;51.136;3.502;2023-05-07T02:57:56;11.30;;;5.72;;
31798;SDS011;18374;51.136;3.502;2023-05-07T03:00:25;20.63;;;6.90;;
31798;SDS011;18374;51.136;3.502;2023-05-07T03:03:11;10.07;;;6.10;;
31798;SDS011;18374;51.136;3.502;2023-05-07T03:05:39;10.57;;;6.70;;
31798;SDS011;18374;51.136;3.502;2023-05-07T03:08:08;13.02;;;6.75;;
31798;SDS011;18374;51.136;3.502;2023-05-07T03:10:37;12.88;;;6.80;;
31798;SDS011;18374;51.136;3.502;2023-05-07T03:13:04;12.05;;;7.03;;
31798;SDS011;18374;51.136;3.502;2023-05-07T03:15:33;11.55;;;7.10;;
31798;SDS011;18374;51.136;3.502;2023-05-07T03:18:00;11.40;;;7.25;;
31798;SDS011;18374;51.136;3.502;2023-05-07T03:20:29;13.70;;;7.00;;
31798;SDS011;18374;51.136;3.502;2023-05-07T03:22:57;8.77;;;6.55;;
31798;SDS011;18374;51.136;3.502;2023-05-07T03:25:25;13.65;;;7.95;;
31798;SDS011;18374;51.136;3.502;2023-05-07T03:27:53;14.23;;;8.32;;
31798;SDS011;18374;51.136;3.502;2023-05-07T03:30:24;11.15;;;6.82;;
31798;SDS011;18374;51.136;3.502;2023-05-07T03:32:52;9.95;;;6.45;;
31798;SDS011;18374;51.136;3.502;2023-05-07T03:35:20;11.20;;;7.60;;
31798;SDS011;18374;51.136;3.502;2023-05-07T03:37:47;13.85;;;7.50;;
31798;SDS011;18374;51.136;3.502;2023-05-07T03:40:15;12.85;;;7.97;;
31798;SDS011;18374;51.136;3.502;2023-05-07T03:42:47;16.55;;;9.05;;
31798;SDS011;18374;51.136;3.502;2023-05-07T03:45:18;14.65;;;7.53;;
31798;SDS011;18374;51.136;3.502;2023-05-07T03:47:55;14.32;;;7.22;;
31798;SDS011;18374;51.136;3.502;2023-05-07T03:50:23;14.18;;;7.63;;
31798;SDS011;18374;51.136;3.502;2023-05-07T03:52:51;13.68;;;8.13;;
31798;SDS011;18374;51.136;3.502;2023-05-07T03:55:21;14.10;;;7.85;;
31798;SDS011;18374;51.136;3.502;2023-05-07T03:57:53;13.30;;;7.78;;
31798;SDS011;18374;51.136;3.502;2023-05-07T04:00:21;15.65;;;8.40;;
31798;SDS011;18374;51.136;3.502;2023-05-07T04:02:49;15.48;;;7.95;;
31798;SDS011;18374;51.136;3.502;2023-05-07T04:05:24;14.10;;;7.57;;
31798;SDS011;18374;51.136;3.502;2023-05-07T04:07:58;13.27;;;7.25;;
31798;SDS011;18374;51.136;3.502;2023-05-07T04:10:34;11.73;;;7.80;;
31798;SDS011;18374;51.136;3.502;2023-05-07T04:13:06;11.75;;;7.00;;
31798;SDS011;18374;51.136;3.502;2023-05-07T04:15:35;18.52;;;8.02;;
31798;SDS011;18374;51.136;3.502;2023-05-07T04:18:06;10.68;;;7.15;;
31798;SDS011;18374;51.136;3.502;2023-05-07T04:20:35;18.02;;;6.70;;
31798;SDS011;18374;51.136;3.502;2023-05-07T04:23:07;14.80;;;7.22;;
31798;SDS011;18374;51.136;3.502;2023-05-07T04:25:35;10.63;;;7.30;;
31798;SDS011;18374;51.136;3.502;2023-05-07T04:28:11;12.35;;;7.63;;
31798;SDS011;18374;51.136;3.502;2023-05-07T04:30:40;14.05;;;7.32;;
31798;SDS011;18374;51.136;3.502;2023-05-07T04:33:10;19.83;;;8.43;;
31798;SDS011;18374;51.136;3.502;2023-05-07T04:35:41;13.63;;;7.72;;
31798;SDS011;18374;51.136;3.502;2023-05-07T04:38:14;14.05;;;8.32;;
31798;SDS011;18374;51.136;3.502;2023-05-07T04:40:42;13.05;;;7.38;;
31798;SDS011;18374;51.136;3.502;2023-05-07T04:43:13;20.30;;;8.45;;
31798;SDS011;18374;51.136;3.502;2023-05-07T04:45:46;13.00;;;8.13;;
31798;SDS011;18374;51.136;3.502;2023-05-07T04:48:14;12.20;;;8.07;;
31798;SDS011;18374;51.136;3.502;2023-05-07T04:50:42;12.52;;;7.65;;
31798;SDS011;18374;51.136;3.502;2023-05-07T04:53:13;13.60;;;7.82;;
31798;SDS011;18374;51.136;3.502;2023-05-07T04:55:40;12.13;;;8.02;;
31798;SDS011;18374;51.136;3.502;2023-05-07T04:58:08;12.88;;;7.95;;
31798;SDS011;18374;51.136;3.502;2023-05-07T05:00:38;10.75;;;8.02;;
31798;SDS011;18374;51.136;3.502;2023-05-07T05:03:07;14.40;;;8.48;;
31798;SDS011;18374;51.136;3.502;2023-05-07T05:05:37;15.93;;;7.95;;
31798;SDS011;18374;51.136;3.502;2023-05-07T05:08:05;15.30;;;8.20;;
31798;SDS011;18374;51.136;3.502;2023-05-07T05:10:36;11.80;;;7.68;;
31798;SDS011;18374;51.136;3.502;2023-05-07T05:13:06;19.63;;;8.27;;
31798;SDS011;18374;51.136;3.502;2023-05-07T05:15:35;12.40;;;7.80;;
31798;SDS011;18374;51.136;3.502;2023-05-07T05:18:03;16.00;;;8.32;;
31798;SDS011;18374;51.136;3.502;2023-05-07T05:20:31;11.98;;;7.82;;
31798;SDS011;18374;51.136;3.502;2023-05-07T05:22:59;11.43;;;7.20;;
31798;SDS011;18374;51.136;3.502;2023-05-07T05:25:27;13.95;;;8.70;;
31798;SDS011;18374;51.136;3.502;2023-05-07T05:27:56;14.48;;;8.52;;
31798;SDS011;18374;51.136;3.502;2023-05-07T05:30:24;14.18;;;8.45;;
31798;SDS011;18374;51.136;3.502;2023-05-07T05:32:52;16.20;;;8.35;;
31798;SDS011;18374;51.136;3.502;2023-05-07T05:35:20;13.15;;;8.15;;
31798;SDS011;18374;51.136;3.502;2023-05-07T05:37:49;12.93;;;7.88;;
31798;SDS011;18374;51.136;3.502;2023-05-07T05:40:18;12.77;;;7.45;;
31798;SDS011;18374;51.136;3.502;2023-05-07T05:42:47;12.65;;;7.25;;
31798;SDS011;18374;51.136;3.502;2023-05-07T05:45:16;13.15;;;7.32;;
31798;SDS011;18374;51.136;3.502;2023-05-07T05:47:45;11.98;;;7.55;;
31798;SDS011;18374;51.136;3.502;2023-05-07T05:50:13;17.80;;;7.35;;
31798;SDS011;18374;51.136;3.502;2023-05-07T05:52:41;13.05;;;7.00;;
31798;SDS011;18374;51.136;3.502;2023-05-07T05:55:10;9.60;;;6.93;;
31798;SDS011;18374;51.136;3.502;2023-05-07T05:57:38;10.02;;;6.70;;
31798;SDS011;18374;51.136;3.502;2023-05-07T06:00:06;8.88;;;7.03;;
31798;SDS011;18374;51.136;3.502;2023-05-07T06:02:44;13.88;;;7.70;;
31798;SDS011;18374;51.136;3.502;2023-05-07T06:05:17;12.48;;;6.82;;
31798;SDS011;18374;51.136;3.502;2023-05-07T06:07:49;16.70;;;6.97;;
31798;SDS011;18374;51.136;3.502;2023-05-07T06:10:17;12.00;;;7.22;;
31798;SDS011;18374;51.136;3.502;2023-05-07T06:12:45;11.65;;;7.53;;
31798;SDS011;18374;51.136;3.502;2023-05-07T06:15:13;13.45;;;7.20;;
31798;SDS011;18374;51.136;3.502;2023-05-07T06:17:42;13.98;;;7.13;;
31798;SDS011;18374;51.136;3.502;2023-05-07T06:20:10;11.73;;;7.10;;
31798;SDS011;18374;51.136;3.502;2023-05-07T06:22:40;8.90;;;6.10;;
31798;SDS011;18374;51.136;3.502;2023-05-07T06:25:09;13.82;;;7.30;;
31798;SDS011;18374;51.136;3.502;2023-05-07T06:27:38;12.00;;;8.00;;
31798;SDS011;18374;51.136;3.502;2023-05-07T06:30:06;14.07;;;6.85;;
31798;SDS011;18374;51.136;3.502;2023-05-07T06:32:36;12.60;;;6.88;;
31798;SDS011;18374;51.136;3.502;2023-05-07T06:35:04;13.65;;;7.15;;
31798;SDS011;18374;51.136;3.502;2023-05-07T06:37:35;17.42;;;8.48;;
31798;SDS011;18374;51.136;3.502;2023-05-07T06:40:07;15.85;;;8.13;;
31798;SDS011;18374;51.136;3.502;2023-05-07T06:42:38;15.00;;;8.15;;
31798;SDS011;18374;51.136;3.502;2023-05-07T06:45:22;16.20;;;8.48;;
31798;SDS011;18374;51.136;3.502;2023-05-07T06:47:53;17.75;;;8.27;;
31798;SDS011;18374;51.136;3.502;2023-05-07T06:50:22;14.88;;;9.30;;
31798;SDS011;18374;51.136;3.502;2023-05-07T06:52:55;16.55;;;9.52;;
31798;SDS011;18374;51.136;3.502;2023-05-07T06:55:22;17.05;;;8.88;;
31798;SDS011;18374;51.136;3.502;2023-05-07T06:57:50;17.05;;;9.35;;
31798;SDS011;18374;51.136;3.502;2023-05-07T07:00:20;17.77;;;9.20;;
31798;SDS011;18374;51.136;3.502;2023-05-07T07:02:53;17.38;;;8.23;;
31798;SDS011;18374;51.136;3.502;2023-05-07T07:05:25;13.82;;;9.07;;
31798;SDS011;18374;51.136;3.502;2023-05-07T07:07:53;19.15;;;8.73;;
31798;SDS011;18374;51.136;3.502;2023-05-07T07:10:21;15.75;;;9.80;;
31798;SDS011;18374;51.136;3.502;2023-05-07T07:12:51;11.45;;;8.10;;
31798;SDS011;18374;51.136;3.502;2023-05-07T07:15:20;16.33;;;8.75;;
31798;SDS011;18374;51.136;3.502;2023-05-07T07:17:49;12.85;;;7.85;;
31798;SDS011;18374;51.136;3.502;2023-05-07T07:20:18;14.13;;;8.38;;
31798;SDS011;18374;51.136;3.502;2023-05-07T07:22:46;19.67;;;9.70;;
31798;SDS011;18374;51.136;3.502;2023-05-07T07:25:16;14.60;;;7.85;;
31798;SDS011;18374;51.136;3.502;2023-05-07T07:27:44;16.70;;;8.50;;
31798;SDS011;18374;51.136;3.502;2023-05-07T07:30:13;14.80;;;8.52;;
31798;SDS011;18374;51.136;3.502;2023-05-07T07:32:46;12.40;;;8.23;;
31798;SDS011;18374;51.136;3.502;2023-05-07T07:35:14;13.57;;;7.88;;
31798;SDS011;18374;51.136;3.502;2023-05-07T07:37:44;13.18;;;6.88;;
31798;SDS011;18374;51.136;3.502;2023-05-07T07:40:13;11.48;;;7.25;;
31798;SDS011;18374;51.136;3.502;2023-05-07T07:42:41;11.77;;;6.93;;
31798;SDS011;18374;51.136;3.502;2023-05-07T07:45:10;12.93;;;6.95;;
31798;SDS011;18374;51.136;3.502;2023-05-07T07:47:43;13.65;;;7.28;;
31798;SDS011;18374;51.136;3.502;2023-05-07T07:50:11;11.52;;;6.30;;
31798;SDS011;18374;51.136;3.502;2023-05-07T07:52:51;12.10;;;6.63;;
31798;SDS011;18374;51.136;3.502;2023-05-07T07:55:20;12.48;;;6.25;;
31798;SDS011;18374;51.136;3.502;2023-05-07T07:57:52;10.50;;;5.70;;
31798;SDS011;18374;51.136;3.502;2023-05-07T08:00:21;13.45;;;6.00;;
31798;SDS011;18374;51.136;3.502;2023-05-07T08:02:53;11.80;;;6.15;;
31798;SDS011;18374;51.136;3.502;2023-05-07T08:05:26;11.32;;;6.25;;
31798;SDS011;18374;51.136;3.502;2023-05-07T08:07:54;10.98;;;6.15;;
31798;SDS011;18374;51.136;3.502;2023-05-07T08:10:26;8.35;;;6.15;;
31798;SDS011;18374;51.136;3.502;2023-05-07T08:13:01;15.55;;;6.85;;
31798;SDS011;18374;51.136;3.502;2023-05-07T08:15:31;12.02;;;6.88;;
31798;SDS011;18374;51.136;3.502;2023-05-07T08:18:00;11.38;;;7.13;;
31798;SDS011;18374;51.136;3.502;2023-05-07T08:20:30;14.15;;;6.50;;
31798;SDS011;18374;51.136;3.502;2023-05-07T08:22:58;9.45;;;6.95;;
31798;SDS011;18374;51.136;3.502;2023-05-07T08:25:27;11.77;;;7.53;;
31798;SDS011;18374;51.136;3.502;2023-05-07T08:27:55;14.93;;;8.20;;
31798;SDS011;18374;51.136;3.502;2023-05-07T08:30:23;16.90;;;8.65;;
31798;SDS011;18374;51.136;3.502;2023-05-07T08:32:52;17.48;;;8.05;;
31798;SDS011;18374;51.136;3.502;2023-05-07T08:35:21;12.90;;;7.95;;
31798;SDS011;18374;51.136;3.502;2023-05-07T08:37:48;15.18;;;8.40;;
31798;SDS011;18374;51.136;3.502;2023-05-07T08:40:18;19.42;;;10.23;;
31798;SDS011;18374;51.136;3.502;2023-05-07T08:42:48;16.85;;;10.27;;
31798;SDS011;18374;51.136;3.502;2023-05-07T08:45:20;20.15;;;10.20;;
31798;SDS011;18374;51.136;3.502;2023-05-07T08:47:51;18.52;;;10.88;;
31798;SDS011;18374;51.136;3.502;2023-05-07T08:50:30;30.73;;;11.18;;
31798;SDS011;18374;51.136;3.502;2023-05-07T08:52:59;19.85;;;11.00;;
31798;SDS011;18374;51.136;3.502;2023-05-07T08:55:28;19.55;;;11.88;;
31798;SDS011;18374;51.136;3.502;2023-05-07T08:57:56;21.08;;;11.57;;
31798;SDS011;18374;51.136;3.502;2023-05-07T09:00:24;21.70;;;11.20;;
31798;SDS011;18374;51.136;3.502;2023-05-07T09:02:54;22.02;;;11.75;;
31798;SDS011;18374;51.136;3.502;2023-05-07T09:05:23;22.90;;;12.88;;
31798;SDS011;18374;51.136;3.502;2023-05-07T09:07:51;21.70;;;12.50;;
31798;SDS011;18374;51.136;3.502;2023-05-07T09:10:21;21.02;;;12.88;;
31798;SDS011;18374;51.136;3.502;2023-05-07T09:12:50;23.23;;;13.50;;
31798;SDS011;18374;51.136;3.502;2023-05-07T09:15:18;20.38;;;13.38;;
31798;SDS011;18374;51.136;3.502;2023-05-07T09:17:46;21.80;;;13.45;;
31798;SDS011;18374;51.136;3.502;2023-05-07T09:20:14;19.73;;;13.50;;
31798;SDS011;18374;51.136;3.502;2023-05-07T09:22:43;25.73;;;14.70;;
31798;SDS011;18374;51.136;3.502;2023-05-07T09:25:15;30.67;;;16.13;;
31798;SDS011;18374;51.136;3.502;2023-05-07T09:27:55;28.42;;;17.52;;
31798;SDS011;18374;51.136;3.502;2023-05-07T09:30:23;26.55;;;17.95;;
31798;SDS011;18374;51.136;3.502;2023-05-07T09:33:01;27.35;;;17.83;;
31798;SDS011;18374;51.136;3.502;2023-05-07T09:35:33;30.85;;;19.52;;
31798;SDS011;18374;51.136;3.502;2023-05-07T09:38:06;30.40;;;20.27;;
31798;SDS011;18374;51.136;3.502;2023-05-07T09:40:36;28.73;;;19.17;;
31798;SDS011;18374;51.136;3.502;2023-05-07T09:43:09;27.60;;;19.45;;
31798;SDS011;18374;51.136;3.502;2023-05-07T09:45:43;28.33;;;19.52;;
31798;SDS011;18374;51.136;3.502;2023-05-07T09:48:11;23.70;;;16.50;;
31798;SDS011;18374;51.136;3.502;2023-05-07T09:50:48;25.52;;;18.42;;
31798;SDS011;18374;51.136;3.502;2023-05-07T09:53:20;23.83;;;16.20;;
31798;SDS011;18374;51.136;3.502;2023-05-07T09:55:50;26.13;;;17.33;;
31798;SDS011;18374;51.136;3.502;2023-05-07T09:58:20;22.13;;;13.15;;
31798;SDS011;18374;51.136;3.502;2023-05-07T10:00:50;24.65;;;15.55;;
31798;SDS011;18374;51.136;3.502;2023-05-07T10:03:20;19.48;;;14.10;;
31798;SDS011;18374;51.136;3.502;2023-05-07T10:05:58;16.92;;;12.35;;
31798;SDS011;18374;51.136;3.502;2023-05-07T10:08:28;15.55;;;11.32;;
31798;SDS011;18374;51.136;3.502;2023-05-07T10:10:59;19.10;;;12.65;;
31798;SDS011;18374;51.136;3.502;2023-05-07T10:13:29;18.60;;;12.25;;
31798;SDS011;18374;51.136;3.502;2023-05-07T10:15:58;14.75;;;11.43;;
31798;SDS011;18374;51.136;3.502;2023-05-07T10:18:33;16.17;;;10.32;;
31798;SDS011;18374;51.136;3.502;2023-05-07T10:21:16;21.77;;;11.18;;
31798;SDS011;18374;51.136;3.502;2023-05-07T10:23:49;14.00;;;9.65;;
31798;SDS011;18374;51.136;3.502;2023-05-07T10:26:47;12.95;;;8.23;;
31798;SDS011;18374;51.136;3.502;2023-05-07T10:32:14;12.77;;;7.55;;
31798;SDS011;18374;51.136;3.502;2023-05-07T10:34:47;12.68;;;7.80;;
31798;SDS011;18374;51.136;3.502;2023-05-07T10:37:17;13.38;;;7.28;;
31798;SDS011;18374;51.136;3.502;2023-05-07T10:39:45;14.57;;;7.68;;
31798;SDS011;18374;51.136;3.502;2023-05-07T10:42:14;11.65;;;7.18;;
31798;SDS011;18374;51.136;3.502;2023-05-07T10:44:48;9.88;;;7.57;;
31798;SDS011;18374;51.136;3.502;2023-05-07T10:47:22;14.47;;;7.27;;
31798;SDS011;18374;51.136;3.502;2023-05-07T10:52:35;10.63;;;6.78;;
31798;SDS011;18374;51.136;3.502;2023-05-07T11:01:49;9.43;;;6.07;;
31798;SDS011;18374;51.136;3.502;2023-05-07T11:04:45;15.00;;;7.43;;
31798;SDS011;18374;51.136;3.502;2023-05-07T11:08:24;10.20;;;5.95;;
31798;SDS011;18374;51.136;3.502;2023-05-07T11:11:01;7.57;;;5.43;;
31798;SDS011;18374;51.136;3.502;2023-05-07T11:13:48;12.38;;;5.93;;
31798;SDS011;18374;51.136;3.502;2023-05-07T11:16:37;11.70;;;5.85;;
31798;SDS011;18374;51.136;3.502;2023-05-07T11:19:47;10.63;;;6.70;;
31798;SDS011;18374;51.136;3.502;2023-05-07T11:25:20;9.68;;;6.03;;
31798;SDS011;18374;51.136;3.502;2023-05-07T11:28:12;10.77;;;6.63;;
31798;SDS011;18374;51.136;3.502;2023-05-07T11:30:50;7.95;;;5.30;;
31798;SDS011;18374;51.136;3.502;2023-05-07T11:33:20;9.82;;;6.20;;
31798;SDS011;18374;51.136;3.502;2023-05-07T11:35:53;11.63;;;6.65;;
31798;SDS011;18374;51.136;3.502;2023-05-07T11:38:24;10.25;;;6.85;;
31798;SDS011;18374;51.136;3.502;2023-05-07T11:40:53;8.15;;;5.47;;
31798;SDS011;18374;51.136;3.502;2023-05-07T11:43:31;9.27;;;5.78;;
31798;SDS011;18374;51.136;3.502;2023-05-07T11:46:09;9.15;;;6.43;;
31798;SDS011;18374;51.136;3.502;2023-05-07T11:48:39;11.38;;;5.70;;
31798;SDS011;18374;51.136;3.502;2023-05-07T11:51:08;11.45;;;6.60;;
31798;SDS011;18374;51.136;3.502;2023-05-07T11:53:41;10.68;;;6.88;;
31798;SDS011;18374;51.136;3.502;2023-05-07T11:56:10;11.18;;;6.20;;
31798;SDS011;18374;51.136;3.502;2023-05-07T11:58:41;12.25;;;6.85;;
31798;SDS011;18374;51.136;3.502;2023-05-07T12:01:10;7.82;;;6.07;;
31798;SDS011;18374;51.136;3.502;2023-05-07T12:03:40;8.68;;;5.82;;
31798;SDS011;18374;51.136;3.502;2023-05-07T12:06:10;9.30;;;6.10;;
31798;SDS011;18374;51.136;3.502;2023-05-07T12:08:39;10.15;;;5.55;;
31798;SDS011;18374;51.136;3.502;2023-05-07T12:11:22;5.35;;;4.60;;
31798;SDS011;18374;51.136;3.502;2023-05-07T12:13:53;11.35;;;5.40;;
31798;SDS011;18374;51.136;3.502;2023-05-07T12:16:26;12.00;;;5.32;;
31798;SDS011;18374;51.136;3.502;2023-05-07T12:18:54;6.88;;;5.28;;
31798;SDS011;18374;51.136;3.502;2023-05-07T12:21:23;10.25;;;5.55;;
31798;SDS011;18374;51.136;3.502;2023-05-07T12:23:52;7.50;;;5.20;;
31798;SDS011;18374;51.136;3.502;2023-05-07T12:26:20;11.00;;;5.57;;
31798;SDS011;18374;51.136;3.502;2023-05-07T12:28:50;7.97;;;5.60;;
31798;SDS011;18374;51.136;3.502;2023-05-07T12:31:18;9.20;;;6.28;;
31798;SDS011;18374;51.136;3.502;2023-05-07T12:33:46;8.32;;;5.07;;
31798;SDS011;18374;51.136;3.502;2023-05-07T12:36:13;9.15;;;5.85;;
31798;SDS011;18374;51.136;3.502;2023-05-07T12:38:42;8.05;;;5.55;;
31798;SDS011;18374;51.136;3.502;2023-05-07T12:41:10;9.90;;;5.47;;
31798;SDS011;18374;51.136;3.502;2023-05-07T12:43:39;8.90;;;5.75;;
31798;SDS011;18374;51.136;3.502;2023-05-07T12:46:11;9.27;;;5.30;;
31798;SDS011;18374;51.136;3.502;2023-05-07T12:48:44;7.63;;;5.45;;
31798;SDS011;18374;51.136;3.502;2023-05-07T12:51:14;7.97;;;4.97;;
31798;SDS011;18374;51.136;3.502;2023-05-07T12:53:43;7.35;;;5.60;;
31798;SDS011;18374;51.136;3.502;2023-05-07T12:56:10;8.57;;;5.07;;
31798;SDS011;18374;51.136;3.502;2023-05-07T12:58:38;10.48;;;5.55;;
31798;SDS011;18374;51.136;3.502;2023-05-07T13:01:07;5.60;;;4.90;;
31798;SDS011;18374;51.136;3.502;2023-05-07T13:03:38;9.10;;;5.47;;
31798;SDS011;18374;51.136;3.502;2023-05-07T13:06:07;8.00;;;5.18;;
31798;SDS011;18374;51.136;3.502;2023-05-07T13:08:37;7.07;;;5.10;;
31798;SDS011;18374;51.136;3.502;2023-05-07T13:11:08;9.35;;;5.40;;
31798;SDS011;18374;51.136;3.502;2023-05-07T13:13:38;8.50;;;5.88;;
31798;SDS011;18374;51.136;3.502;2023-05-07T13:16:08;9.05;;;5.15;;
31798;SDS011;18374;51.136;3.502;2023-05-07T13:18:38;7.57;;;4.95;;
31798;SDS011;18374;51.136;3.502;2023-05-07T13:21:07;7.80;;;4.70;;
31798;SDS011;18374;51.136;3.502;2023-05-07T13:23:35;8.18;;;4.28;;
31798;SDS011;18374;51.136;3.502;2023-05-07T13:26:05;5.90;;;4.57;;
31798;SDS011;18374;51.136;3.502;2023-05-07T13:28:54;4.95;;;3.80;;
31798;SDS011;18374;51.136;3.502;2023-05-07T13:31:23;5.20;;;4.45;;
31798;SDS011;18374;51.136;3.502;2023-05-07T13:33:51;8.23;;;4.72;;
31798;SDS011;18374;51.136;3.502;2023-05-07T13:36:19;7.35;;;4.47;;
31798;SDS011;18374;51.136;3.502;2023-05-07T13:38:47;9.30;;;5.28;;
31798;SDS011;18374;51.136;3.502;2023-05-07T13:41:15;7.85;;;5.13;;
31798;SDS011;18374;51.136;3.502;2023-05-07T13:43:43;5.72;;;4.05;;
31798;SDS011;18374;51.136;3.502;2023-05-07T13:46:10;6.78;;;5.15;;
31798;SDS011;18374;51.136;3.502;2023-05-07T13:48:38;18.60;;;6.45;;
31798;SDS011;18374;51.136;3.502;2023-05-07T13:51:06;14.05;;;4.97;;
31798;SDS011;18374;51.136;3.502;2023-05-07T13:53:34;10.25;;;5.70;;
31798;SDS011;18374;51.136;3.502;2023-05-07T13:56:02;11.00;;;5.40;;
31798;SDS011;18374;51.136;3.502;2023-05-07T13:58:31;8.13;;;5.68;;
31798;SDS011;18374;51.136;3.502;2023-05-07T14:00:59;7.18;;;5.63;;
31798;SDS011;18374;51.136;3.502;2023-05-07T14:03:27;7.22;;;5.88;;
31798;SDS011;18374;51.136;3.502;2023-05-07T14:05:55;7.50;;;4.47;;
31798;SDS011;18374;51.136;3.502;2023-05-07T14:08:24;9.05;;;5.25;;
31798;SDS011;18374;51.136;3.502;2023-05-07T14:10:53;6.18;;;4.90;;
31798;SDS011;18374;51.136;3.502;2023-05-07T14:13:20;9.70;;;5.40;;
31798;SDS011;18374;51.136;3.502;2023-05-07T14:15:48;6.20;;;4.18;;
31798;SDS011;18374;51.136;3.502;2023-05-07T14:18:16;7.80;;;4.40;;
31798;SDS011;18374;51.136;3.502;2023-05-07T14:20:44;9.30;;;4.45;;
31798;SDS011;18374;51.136;3.502;2023-05-07T14:23:13;6.40;;;4.47;;
31798;SDS011;18374;51.136;3.502;2023-05-07T14:25:41;7.68;;;4.15;;
31798;SDS011;18374;51.136;3.502;2023-05-07T14:28:10;7.22;;;4.32;;
31798;SDS011;18374;51.136;3.502;2023-05-07T14:30:38;7.32;;;4.05;;
31798;SDS011;18374;51.136;3.502;2023-05-07T14:33:06;6.07;;;4.30;;
31798;SDS011;18374;51.136;3.502;2023-05-07T14:35:34;5.10;;;4.40;;
31798;SDS011;18374;51.136;3.502;2023-05-07T14:38:02;10.48;;;4.63;;
31798;SDS011;18374;51.136;3.502;2023-05-07T14:40:30;5.75;;;3.70;;
31798;SDS011;18374;51.136;3.502;2023-05-07T14:42:57;7.28;;;4.07;;
31798;SDS011;18374;51.136;3.502;2023-05-07T14:45:25;8.27;;;3.63;;
31798;SDS011;18374;51.136;3.502;2023-05-07T14:47:53;6.55;;;2.97;;
31798;SDS011;18374;51.136;3.502;2023-05-07T14:50:21;4.50;;;3.45;;
31798;SDS011;18374;51.136;3.502;2023-05-07T14:52:49;7.85;;;3.95;;
31798;SDS011;18374;51.136;3.502;2023-05-07T14:55:17;5.93;;;3.22;;
31798;SDS011;18374;51.136;3.502;2023-05-07T14:57:44;6.32;;;4.60;;
31798;SDS011;18374;51.136;3.502;2023-05-07T15:00:12;5.40;;;4.05;;
31798;SDS011;18374;51.136;3.502;2023-05-07T15:02:40;6.38;;;4.00;;
31798;SDS011;18374;51.136;3.502;2023-05-07T15:05:08;6.63;;;4.30;;
31798;SDS011;18374;51.136;3.502;2023-05-07T15:07:36;10.93;;;4.45;;
31798;SDS011;18374;51.136;3.502;2023-05-07T15:10:04;6.18;;;4.03;;